Chute-des-Passes, Canada
Current Conditions -  °F | °C
As of 8:00 AM on Friday 24 Oct 2014 (Local Time) from CYRJ Reporting Station
Scattered Clouds Scattered Clouds  
Wind Chill: 27°   Ceiling: Unl
Heat Index: 34°   Visibility: 40mi
Dew Point: 27°   Wind: 8mph
Humidity: 75%   Direction: 290°WNW
Pressure: 30"   Gusts: NA
Location:  49.87°N, 71.28°W
Report Text: CYRJ 241200Z 29007KT 40SM SCT100 SCT220 01/M03 A3000 RMK AC3CI1 CI TR SLP166
Loading
Personal Weather Stations






























Interactive Weather Map
Tropical Storm Tracking
New forecast layout! Learn more

10-Day Weather Forecast

Advertisements
Track Severe Weather on mobile